Time;durP1;ratioP1;P1;durP2;ratioP2;P2;SDS_P1;SDS_P2;PMS_P1;PMS_P2;Temp;Humidity;BMP_temperature;BMP_pressure;BME280_temperature;BME280_humidity;BME280_pressure;Samples;Min_cycle;Max_cycle;Signal;HPM_P1;HPM_P2
2024/01/10 00:02:03;;;;;;;;;;;-2.50;99.90;;;;;;5115018;28;19912;-75
2024/01/10 00:04:29;;;;;;;;;;;-2.50;99.90;;;;;;5119047;28;19929;-76
2024/01/10 00:06:54;;;;;;;;;;;-2.50;99.90;;;;;;5120172;28;19904;-76
2024/01/10 00:09:20;;;;;;;;;;;-2.50;99.90;;;;;;5118915;28;19904;-76
2024/01/10 00:11:45;;;;;;;;;;;-2.50;99.90;;;;;;5120357;28;19950;-75
2024/01/10 00:14:11;;;;;;;;;;;-2.50;99.90;;;;;;5120163;28;19915;-75
2024/01/10 00:16:36;;;;;;;;;;;-2.50;99.90;;;;;;5116959;28;19911;-75
2024/01/10 00:19:02;;;;;;;;;;;-2.50;99.90;;;;;;5119937;28;19974;-75
2024/01/10 00:21:28;;;;;;;;;;;-2.50;99.90;;;;;;5118382;28;19904;-75
2024/01/10 00:23:53;;;;;;;;;;;-2.50;99.90;;;;;;5119635;28;19907;-76
2024/01/10 00:26:19;;;;;;;;;;;-2.50;99.90;;;;;;5118581;28;19911;-76
2024/01/10 00:28:46;;;;;;;;;;;-2.50;99.90;;;;;;5119694;28;19939;-75
2024/01/10 00:31:12;;;;;;;;;;;-2.60;99.90;;;;;;5117363;28;20364;-75
2024/01/10 00:33:37;;;;;;;;;;;-2.60;99.90;;;;;;5115663;28;19903;-76
2024/01/10 00:36:03;;;;;;;;;;;-2.60;99.90;;;;;;5120112;28;20369;-76
2024/01/10 00:38:28;;;;;;;;;;;-2.60;99.90;;;;;;5118001;28;20363;-76
2024/01/10 00:40:54;;;;;;;;;;;-2.70;99.90;;;;;;5118555;28;19911;-76
2024/01/10 00:43:19;;;;;;;;;;;-2.60;99.90;;;;;;5119708;28;19908;-76
2024/01/10 00:45:45;;;;;;;;;;;-2.70;99.90;;;;;;5119077;28;19951;-76
2024/01/10 00:48:10;;;;;;;;;;;-2.70;99.90;;;;;;5119036;28;20088;-76
2024/01/10 00:50:36;;;;;;;;;;;-2.60;99.90;;;;;;5119681;28;19908;-76
2024/01/10 00:53:01;;;;;;;;;;;-2.60;99.90;;;;;;5119559;28;19915;-76
2024/01/10 00:55:27;;;;;;;;;;;-2.60;99.90;;;;;;5117791;28;19918;-76
2024/01/10 00:57:52;;;;;;;;;;;-2.60;99.90;;;;;;5118043;28;19918;-77
2024/01/10 01:00:18;;;;;;;;;;;-2.60;99.90;;;;;;5117865;28;19904;-76
2024/01/10 01:02:43;;;;;;;;;;;-2.60;99.90;;;;;;5117808;28;19911;-76
2024/01/10 01:05:09;;;;;;;;;;;-2.60;99.90;;;;;;5117913;28;19912;-77
2024/01/10 01:07:36;;;;;;;;;;;-2.50;99.90;;;;;;5117976;28;19908;-77
2024/01/10 01:10:02;;;;;;;;;;;-2.50;99.90;;;;;;5116521;28;19982;-76
2024/01/10 01:12:28;;;;;;;;;;;-2.50;99.90;;;;;;5114445;28;19904;-76
2024/01/10 01:14:54;;;;;;;;;;;-2.50;99.90;;;;;;5108770;28;19929;-76
2024/01/10 01:17:19;;;;;;;;;;;-2.40;99.90;;;;;;5115040;28;20388;-76
2024/01/10 01:19:45;;;;;;;;;;;-2.40;99.90;;;;;;5117831;28;20001;-76
2024/01/10 01:22:10;;;;;;;;;;;-2.40;99.90;;;;;;5116079;28;19907;-77
2024/01/10 01:24:36;;;;;;;;;;;-2.40;99.90;;;;;;5117533;28;19922;-76
2024/01/10 01:27:02;;;;;;;;;;;-2.40;99.90;;;;;;5117774;28;19910;-77
2024/01/10 01:29:28;;;;;;;;;;;-2.40;99.90;;;;;;5117585;27;19907;-76
2024/01/10 01:31:54;;;;;;;;;;;-2.40;99.90;;;;;;5113900;28;19927;-77
2024/01/10 01:34:20;;;;;;;;;;;-2.40;99.90;;;;;;5118155;28;20470;-77
2024/01/10 01:36:45;;;;;;;;;;;-2.40;99.90;;;;;;5115843;28;19904;-77
2024/01/10 01:39:13;;;;;;;;;;;-2.30;99.90;;;;;;5116137;28;19908;-76
2024/01/10 01:41:39;;;;;;;;;;;-2.30;99.90;;;;;;5117516;28;19908;-77
2024/01/10 01:44:04;;;;;;;;;;;-2.30;99.90;;;;;;5117498;28;19956;-77
2024/01/10 01:46:31;;;;;;;;;;;-2.30;99.90;;;;;;5115822;28;19908;-76
2024/01/10 01:48:56;;;;;;;;;;;-2.30;99.90;;;;;;5117408;28;19907;-77
2024/01/10 01:51:22;;;;;;;;;;;-2.30;99.90;;;;;;5116966;28;19907;-76
2024/01/10 01:53:48;;;;;;;;;;;-2.30;99.90;;;;;;5117413;28;19908;-76
2024/01/10 01:56:14;;;;;;;;;;;-2.20;99.90;;;;;;5076406;28;1163631;-77
2024/01/10 01:58:40;;;;;;;;;;;-2.30;99.90;;;;;;5118271;27;19915;-77
2024/01/10 02:01:05;;;;;;;;;;;-2.20;99.90;;;;;;5118163;28;20352;-76
2024/01/10 02:03:32;;;;;;;;;;;-2.30;99.90;;;;;;5116041;28;20403;-77
2024/01/10 02:05:58;;;;;;;;;;;-2.30;99.90;;;;;;5116840;28;19918;-77
2024/01/10 02:08:23;;;;;;;;;;;-2.20;99.90;;;;;;5118039;28;19908;-77
2024/01/10 02:10:49;;;;;;;;;;;-2.30;99.90;;;;;;5117822;28;19911;-77
2024/01/10 02:13:15;;;;;;;;;;;-2.20;99.90;;;;;;5118345;28;19904;-76
2024/01/10 02:15:40;;;;;;;;;;;-2.20;99.90;;;;;;5116340;28;19904;-76
2024/01/10 02:18:06;;;;;;;;;;;-2.10;99.90;;;;;;5117734;28;19904;-76
2024/01/10 02:20:31;;;;;;;;;;;-2.10;99.90;;;;;;5116401;28;20413;-77
2024/01/10 02:22:57;;;;;;;;;;;-2.10;99.90;;;;;;5117647;28;19907;-77
2024/01/10 02:25:22;;;;;;;;;;;-2.10;99.90;;;;;;5115465;28;19911;-76
2024/01/10 02:27:48;;;;;;;;;;;-2.10;99.90;;;;;;5117701;28;19903;-77
2024/01/10 02:30:14;;;;;;;;;;;-2.10;99.90;;;;;;5117572;28;19918;-76
2024/01/10 02:32:39;;;;;;;;;;;-2.10;99.90;;;;;;5114862;28;19908;-77
2024/01/10 02:35:05;;;;;;;;;;;-2.10;99.90;;;;;;5114077;28;19911;-76
2024/01/10 02:37:30;;;;;;;;;;;-2.00;99.90;;;;;;5117414;28;19965;-76
2024/01/10 02:39:56;;;;;;;;;;;-2.00;99.90;;;;;;5117088;28;19923;-76
2024/01/10 02:42:21;;;;;;;;;;;-1.90;99.90;;;;;;5117298;28;19904;-75
2024/01/10 02:44:47;;;;;;;;;;;-1.80;99.90;;;;;;5116472;28;19908;-76
2024/01/10 02:47:12;;;;;;;;;;;-1.80;99.90;;;;;;5116117;28;19908;-76
2024/01/10 02:49:38;;;;;;;;;;;-1.80;99.90;;;;;;5115718;28;19908;-76
2024/01/10 02:52:04;;;;;;;;;;;-1.80;99.90;;;;;;5117436;28;19911;-75
2024/01/10 02:54:29;;;;;;;;;;;-1.70;99.90;;;;;;5117161;28;19908;-76
2024/01/10 02:56:55;;;;;;;;;;;-1.80;99.90;;;;;;5116922;28;19997;-76
2024/01/10 02:59:20;;;;;;;;;;;-1.80;99.90;;;;;;5116786;28;19904;-76
2024/01/10 03:01:46;;;;;;;;;;;-1.80;99.90;;;;;;5115730;28;20307;-76
2024/01/10 03:04:11;;;;;;;;;;;-1.80;99.90;;;;;;5116557;28;19915;-76
2024/01/10 03:06:37;;;;;;;;;;;-1.80;99.90;;;;;;5117025;28;19914;-76
2024/01/10 03:09:03;;;;;;;;;;;-1.80;99.90;;;;;;5116656;27;20000;-76
2024/01/10 03:11:28;;;;;;;;;;;-1.80;99.90;;;;;;5115615;28;19943;-76
2024/01/10 03:14:06;;;;;;;;;;;-1.80;99.90;;;;;;5116417;28;19907;-76
2024/01/10 03:16:32;;;;;;;;;;;-1.90;99.90;;;;;;5112485;28;19918;-76
2024/01/10 03:18:58;;;;;;;;;;;-1.80;99.90;;;;;;5116839;28;19904;-76
2024/01/10 03:21:24;;;;;;;;;;;-1.80;99.90;;;;;;5116834;28;19929;-76
2024/01/10 03:23:50;;;;;;;;;;;-1.80;99.90;;;;;;5115052;28;19980;-76
2024/01/10 03:26:16;;;;;;;;;;;-1.80;99.90;;;;;;5116562;28;19911;-76
2024/01/10 03:28:41;;;;;;;;;;;-1.80;99.90;;;;;;5114793;28;19903;-76
2024/01/10 03:31:07;;;;;;;;;;;-1.80;99.90;;;;;;5116769;28;20277;-76
2024/01/10 03:33:32;;;;;;;;;;;-1.80;99.90;;;;;;5113334;28;19904;-76
2024/01/10 03:35:58;;;;;;;;;;;-1.80;99.90;;;;;;5116773;28;19904;-77
2024/01/10 03:38:24;;;;;;;;;;;-1.80;99.90;;;;;;5114523;28;19914;-78
2024/01/10 03:40:49;;;;;;;;;;;-1.70;99.90;;;;;;5115451;28;20006;-76
2024/01/10 03:43:16;;;;;;;;;;;-1.70;99.90;;;;;;5116072;28;20109;-76
2024/01/10 03:45:42;;;;;;;;;;;-1.70;99.90;;;;;;5116008;28;20006;-76
2024/01/10 03:48:07;;;;;;;;;;;-1.60;99.90;;;;;;5111467;28;19954;-78
2024/01/10 03:50:33;;;;;;;;;;;-1.60;99.90;;;;;;5116557;28;19999;-76
2024/01/10 03:52:58;;;;;;;;;;;-1.60;99.90;;;;;;5115872;28;19943;-76
2024/01/10 03:55:24;;;;;;;;;;;-1.60;99.90;;;;;;5107000;28;19933;-76
2024/01/10 03:57:49;;;;;;;;;;;-1.50;99.90;;;;;;5116318;28;19929;-77
2024/01/10 04:00:15;;;;;;;;;;;-1.50;99.90;;;;;;5115924;28;19929;-78
2024/01/10 04:02:40;;;;;;;;;;;-1.50;99.90;;;;;;5108422;28;20432;-77
2024/01/10 04:05:08;;;;;;;;;;;-1.50;99.90;;;;;;5106811;28;19912;-77
2024/01/10 04:07:33;;;;;;;;;;;-1.50;99.90;;;;;;5111148;28;20324;-77
2024/01/10 04:09:59;;;;;;;;;;;-1.50;99.90;;;;;;5115959;28;19904;-77
2024/01/10 04:12:24;;;;;;;;;;;-1.50;99.90;;;;;;5102500;28;19973;-77
2024/01/10 04:14:50;;;;;;;;;;;-1.50;99.90;;;;;;5116022;28;19973;-77
2024/01/10 04:17:15;;;;;;;;;;;-1.40;99.90;;;;;;5105935;28;20299;-77
2024/01/10 04:19:41;;;;;;;;;;;-1.50;99.90;;;;;;5116142;28;20267;-77
2024/01/10 04:22:07;;;;;;;;;;;-1.40;99.90;;;;;;5114244;28;20395;-77
2024/01/10 04:24:32;;;;;;;;;;;-1.40;99.90;;;;;;5114924;28;19935;-77
2024/01/10 04:26:58;;;;;;;;;;;-1.40;99.90;;;;;;5115522;28;19907;-76
2024/01/10 04:29:23;;;;;;;;;;;-1.40;99.90;;;;;;5114622;28;19904;-76
2024/01/10 04:31:49;;;;;;;;;;;-1.30;99.90;;;;;;5111675;28;19935;-76
2024/01/10 04:34:15;;;;;;;;;;;-1.30;99.90;;;;;;5114296;28;20005;-77
2024/01/10 04:36:40;;;;;;;;;;;-1.30;99.90;;;;;;5115500;28;19943;-76
2024/01/10 04:39:06;;;;;;;;;;;-1.30;99.90;;;;;;5110184;28;19908;-76
2024/01/10 04:41:31;;;;;;;;;;;-1.20;99.90;;;;;;5112544;28;20513;-77
2024/01/10 04:43:57;;;;;;;;;;;-1.20;99.90;;;;;;5105855;28;20336;-76
2024/01/10 04:46:22;;;;;;;;;;;-1.20;99.90;;;;;;5104093;28;19935;-76
2024/01/10 04:48:48;;;;;;;;;;;-1.20;99.90;;;;;;5108700;28;19975;-76
2024/01/10 04:51:14;;;;;;;;;;;-1.10;99.90;;;;;;5099057;28;20287;-77
2024/01/10 04:53:40;;;;;;;;;;;-1.20;99.90;;;;;;5098230;28;19904;-77
2024/01/10 04:56:05;;;;;;;;;;;-1.20;99.90;;;;;;5118893;28;19916;-77
2024/01/10 04:58:32;;;;;;;;;;;-1.10;99.90;;;;;;5119467;28;19945;-77
2024/01/10 05:00:58;;;;;;;;;;;-1.10;99.90;;;;;;5113546;28;19908;-77
2024/01/10 05:03:23;;;;;;;;;;;-1.10;99.90;;;;;;5109432;28;19904;-77
2024/01/10 05:05:49;;;;;;;;;;;-1.10;99.90;;;;;;5115353;28;19907;-77
2024/01/10 05:08:14;;;;;;;;;;;-1.10;99.90;;;;;;5116900;28;20327;-77
2024/01/10 05:10:40;;;;;;;;;;;-1.10;99.90;;;;;;5117518;28;20336;-77
2024/01/10 05:13:05;;;;;;;;;;;-1.10;99.90;;;;;;5119420;28;20359;-77
2024/01/10 05:15:31;;;;;;;;;;;-1.10;99.90;;;;;;5117755;28;20346;-78
2024/01/10 05:17:56;;;;;;;;;;;-1.00;99.90;;;;;;5117637;28;19961;-77
2024/01/10 05:20:22;;;;;;;;;;;-1.00;99.90;;;;;;5117652;28;19957;-77
2024/01/10 05:22:48;;;;;;;;;;;-1.00;99.90;;;;;;5118567;28;19975;-77
2024/01/10 05:25:13;;;;;;;;;;;-1.00;99.90;;;;;;5119295;28;19920;-78
2024/01/10 05:27:39;;;;;;;;;;;-0.90;99.90;;;;;;5107393;28;19904;-78
2024/01/10 05:30:05;;;;;;;;;;;-0.90;99.90;;;;;;5117188;28;19904;-78
2024/01/10 05:32:31;;;;;;;;;;;-0.90;99.90;;;;;;5117119;28;20010;-78
2024/01/10 05:34:56;;;;;;;;;;;-0.90;99.90;;;;;;5118905;28;19907;-76
2024/01/10 05:37:22;;;;;;;;;;;-0.90;99.90;;;;;;5117178;28;19908;-76
2024/01/10 05:39:48;;;;;;;;;;;-0.80;99.90;;;;;;5118623;28;20604;-76
2024/01/10 05:42:14;;;;;;;;;;;-0.80;99.90;;;;;;5102508;28;20014;-77
2024/01/10 05:44:40;;;;;;;;;;;-0.90;99.90;;;;;;5092421;28;19971;-77
2024/01/10 05:47:06;;;;;;;;;;;-0.90;99.90;;;;;;5103866;28;19908;-77
2024/01/10 05:49:32;;;;;;;;;;;-0.80;99.90;;;;;;5092399;28;19911;-76
2024/01/10 05:51:58;;;;;;;;;;;-0.80;99.90;;;;;;5094422;28;19908;-77
2024/01/10 05:54:23;;;;;;;;;;;-0.80;99.90;;;;;;5093973;28;19961;-77
2024/01/10 05:56:49;;;;;;;;;;;-0.80;99.90;;;;;;5103151;28;19971;-77
2024/01/10 05:59:16;;;;;;;;;;;-0.80;99.90;;;;;;5093302;28;19949;-77
2024/01/10 06:01:42;;;;;;;;;;;-0.80;99.90;;;;;;5100795;28;19907;-77
2024/01/10 06:04:07;;;;;;;;;;;-0.80;99.90;;;;;;5091733;28;19930;-77
2024/01/10 06:06:33;;;;;;;;;;;-0.70;99.90;;;;;;5095982;28;19916;-76
2024/01/10 06:08:59;;;;;;;;;;;-0.70;99.90;;;;;;5093023;28;19908;-76
2024/01/10 06:11:25;;;;;;;;;;;-0.70;99.90;;;;;;5093680;28;19955;-76
2024/01/10 06:13:50;;;;;;;;;;;-0.70;99.90;;;;;;5095319;28;19908;-77
2024/01/10 06:16:16;;;;;;;;;;;-0.70;99.90;;;;;;5099086;28;19911;-76
2024/01/10 06:18:42;;;;;;;;;;;-0.60;99.90;;;;;;5091367;28;19904;-77
2024/01/10 06:21:08;;;;;;;;;;;-0.60;99.90;;;;;;5096750;28;19908;-76
2024/01/10 06:23:33;;;;;;;;;;;-0.60;99.90;;;;;;5093106;28;20379;-77
2024/01/10 06:25:59;;;;;;;;;;;-0.60;99.90;;;;;;5095894;28;19911;-76
2024/01/10 06:28:24;;;;;;;;;;;-0.60;99.90;;;;;;5094202;28;19912;-76
2024/01/10 06:30:50;;;;;;;;;;;-0.60;99.90;;;;;;5094095;28;20429;-77
2024/01/10 06:33:15;;;;;;;;;;;-0.60;99.90;;;;;;5097744;28;19911;-76
2024/01/10 06:35:43;;;;;;;;;;;-0.50;99.90;;;;;;5100658;28;20029;-76
2024/01/10 06:38:09;;;;;;;;;;;-0.50;99.90;;;;;;5091459;28;19930;-76
2024/01/10 06:40:34;;;;;;;;;;;-0.50;99.90;;;;;;5092679;28;19914;-77
2024/01/10 06:43:00;;;;;;;;;;;-0.50;99.90;;;;;;5101138;28;20006;-77
2024/01/10 06:45:26;;;;;;;;;;;-0.50;99.90;;;;;;5095914;28;19954;-77
2024/01/10 06:47:51;;;;;;;;;;;-0.50;99.90;;;;;;5113672;28;19918;-76
2024/01/10 06:50:19;;;;;;;;;;;-0.50;99.90;;;;;;5117449;28;20348;-76
2024/01/10 06:52:44;;;;;;;;;;;-0.50;99.90;;;;;;5104631;28;19911;-76
2024/01/10 06:55:10;;;;;;;;;;;-0.40;99.90;;;;;;5117393;28;19915;-76
2024/01/10 06:57:35;;;;;;;;;;;-0.40;99.90;;;;;;5115299;28;19961;-76
2024/01/10 07:00:03;;;;;;;;;;;-0.40;99.90;;;;;;5118230;28;19904;-75
2024/01/10 07:02:29;;;;;;;;;;;-0.40;99.90;;;;;;5117994;28;19903;-76
2024/01/10 07:04:54;;;;;;;;;;;-0.40;99.90;;;;;;5100268;28;19910;-76
2024/01/10 07:07:20;;;;;;;;;;;-0.30;99.90;;;;;;5116950;28;20001;-77
2024/01/10 07:09:45;;;;;;;;;;;-0.40;99.90;;;;;;5116472;28;19907;-76
2024/01/10 07:12:11;;;;;;;;;;;-0.30;99.90;;;;;;5116558;28;19908;-76
2024/01/10 07:14:36;;;;;;;;;;;-0.30;99.90;;;;;;5116509;28;19908;-78
2024/01/10 07:17:02;;;;;;;;;;;-0.30;99.90;;;;;;5117010;28;19903;-77
2024/01/10 07:19:27;;;;;;;;;;;-0.30;99.90;;;;;;5115214;28;19904;-77
2024/01/10 07:21:55;;;;;;;;;;;-0.30;99.90;;;;;;5115380;28;19903;-76
2024/01/10 07:24:21;;;;;;;;;;;-0.20;99.90;;;;;;5104881;28;19960;-76
2024/01/10 07:26:46;;;;;;;;;;;-0.30;99.90;;;;;;5115608;28;19911;-76
2024/01/10 07:29:12;;;;;;;;;;;-0.30;99.90;;;;;;5116804;28;19917;-77
2024/01/10 07:31:38;;;;;;;;;;;-0.40;99.90;;;;;;5116409;28;19903;-76
2024/01/10 07:34:06;;;;;;;;;;;-0.40;99.90;;;;;;5115306;28;19907;-77
2024/01/10 07:36:33;;;;;;;;;;;-0.40;99.90;;;;;;5116640;28;19954;-76
2024/01/10 07:38:59;;;;;;;;;;;-0.40;99.90;;;;;;5116628;28;19956;-76
2024/01/10 07:41:25;;;;;;;;;;;-0.40;99.90;;;;;;5116522;28;19903;-76
2024/01/10 07:43:50;;;;;;;;;;;-0.30;99.90;;;;;;5116088;28;19968;-76
2024/01/10 07:46:16;;;;;;;;;;;-0.30;99.90;;;;;;5115256;28;19908;-76
2024/01/10 07:48:42;;;;;;;;;;;-0.30;99.90;;;;;;5116220;28;19930;-77
2024/01/10 07:51:07;;;;;;;;;;;-0.20;99.90;;;;;;5115060;28;20002;-77
2024/01/10 07:53:33;;;;;;;;;;;-0.20;99.90;;;;;;5114921;28;19990;-77
2024/01/10 07:55:59;;;;;;;;;;;-0.20;99.90;;;;;;5098463;28;19951;-77
2024/01/10 07:58:24;;;;;;;;;;;-0.10;99.90;;;;;;5109576;28;20283;-77
2024/01/10 08:00:51;;;;;;;;;;;-0.10;99.90;;;;;;5116432;28;20309;-77
2024/01/10 08:03:16;;;;;;;;;;;-0.10;99.90;;;;;;5116489;28;19933;-76
2024/01/10 08:05:43;;;;;;;;;;;-0.10;99.90;;;;;;5114781;28;19912;-77
2024/01/10 08:08:09;;;;;;;;;;;0.00;99.90;;;;;;5116343;28;19907;-78
2024/01/10 08:10:34;;;;;;;;;;;0.00;99.90;;;;;;5115794;28;19957;-77
2024/01/10 08:13:00;;;;;;;;;;;0.00;99.90;;;;;;5116537;28;19911;-77
2024/01/10 08:15:25;;;;;;;;;;;0.10;99.90;;;;;;5116177;28;19911;-77
2024/01/10 08:17:51;;;;;;;;;;;0.10;99.90;;;;;;5114987;28;19904;-77
2024/01/10 08:20:20;;;;;;;;;;;0.20;99.90;;;;;;5114861;28;19903;-77
2024/01/10 08:22:46;;;;;;;;;;;0.20;99.90;;;;;;5116257;28;19904;-77
2024/01/10 08:25:13;;;;;;;;;;;0.30;99.90;;;;;;5117615;28;20010;-79
2024/01/10 08:27:38;;;;;;;;;;;0.40;99.90;;;;;;5118662;28;20011;-78
2024/01/10 08:30:04;;;;;;;;;;;0.50;99.90;;;;;;5118880;28;19935;-79
2024/01/10 08:32:30;;;;;;;;;;;0.50;99.90;;;;;;5119606;28;19926;-79
2024/01/10 08:34:56;;;;;;;;;;;0.60;99.90;;;;;;5116929;28;19995;-78
2024/01/10 08:37:21;;;;;;;;;;;0.70;99.90;;;;;;5117866;28;19904;-78
2024/01/10 08:39:47;;;;;;;;;;;0.80;99.90;;;;;;5113962;28;19904;-78
2024/01/10 08:42:13;;;;;;;;;;;0.80;99.90;;;;;;5112361;28;19904;-78
2024/01/10 08:44:38;;;;;;;;;;;0.90;99.90;;;;;;5119887;28;19998;-78
2024/01/10 08:47:04;;;;;;;;;;;0.90;99.90;;;;;;5118947;28;20450;-78
2024/01/10 08:49:29;;;;;;;;;;;0.90;99.90;;;;;;5119801;28;19904;-78
2024/01/10 08:51:55;;;;;;;;;;;1.00;99.90;;;;;;5118714;28;19903;-79
2024/01/10 08:54:22;;;;;;;;;;;1.00;99.90;;;;;;5120027;28;20003;-79
2024/01/10 08:56:47;;;;;;;;;;;1.10;99.90;;;;;;5119641;28;19915;-78
2024/01/10 08:59:13;;;;;;;;;;;1.10;99.90;;;;;;5119683;27;20623;-77
2024/01/10 09:01:39;;;;;;;;;;;1.30;99.90;;;;;;5118324;28;19907;-78
2024/01/10 09:04:05;;;;;;;;;;;1.30;99.90;;;;;;5119924;28;19915;-78
2024/01/10 09:06:33;;;;;;;;;;;1.40;99.90;;;;;;5119087;28;19908;-78
2024/01/10 09:08:59;;;;;;;;;;;1.50;99.90;;;;;;5119574;28;20102;-77
2024/01/10 09:11:24;;;;;;;;;;;1.70;99.90;;;;;;5119496;28;19945;-77
2024/01/10 09:13:50;;;;;;;;;;;1.70;99.90;;;;;;5119462;28;19903;-77
2024/01/10 09:16:16;;;;;;;;;;;1.80;99.90;;;;;;5119176;28;19908;-77
2024/01/10 09:18:42;;;;;;;;;;;1.90;99.90;;;;;;5119455;27;19903;-77
2024/01/10 09:21:07;;;;;;;;;;;2.00;99.90;;;;;;5117870;28;20368;-78
2024/01/10 09:23:33;;;;;;;;;;;2.10;99.90;;;;;;5119092;28;20360;-77
2024/01/10 09:25:58;;;;;;;;;;;2.10;99.90;;;;;;5114521;28;19919;-77
2024/01/10 09:28:24;;;;;;;;;;;2.20;99.90;;;;;;5100284;28;19922;-77
2024/01/10 09:30:51;;;;;;;;;;;2.30;99.90;;;;;;5101082;28;19999;-77
2024/01/10 09:33:17;;;;;;;;;;;2.30;99.90;;;;;;5113506;28;19916;-76
2024/01/10 09:35:42;;;;;;;;;;;2.30;99.90;;;;;;5113812;28;19908;-78
2024/01/10 09:38:08;;;;;;;;;;;2.40;99.90;;;;;;5109560;28;19903;-77
2024/01/10 09:40:34;;;;;;;;;;;2.50;99.90;;;;;;5110243;28;20397;-78
2024/01/10 09:42:59;;;;;;;;;;;2.60;99.90;;;;;;5106378;27;19904;-77
2024/01/10 09:45:26;;;;;;;;;;;2.60;99.90;;;;;;5111590;28;19916;-78
2024/01/10 09:47:56;;;;;;;;;;;2.70;99.90;;;;;;5113054;28;19946;-77
2024/01/10 09:50:21;;;;;;;;;;;2.80;99.90;;;;;;5117850;27;19911;-78
2024/01/10 09:52:47;;;;;;;;;;;2.90;99.90;;;;;;5116218;28;19903;-79
2024/01/10 09:55:13;;;;;;;;;;;3.00;99.90;;;;;;5112772;28;19907;-77
2024/01/10 09:57:39;;;;;;;;;;;3.10;99.90;;;;;;5110448;28;20002;-77
2024/01/10 10:00:10;;;;;;;;;;;3.30;99.90;;;;;;5115605;28;19904;-77
2024/01/10 10:02:37;;;;;;;;;;;3.40;99.90;;;;;;5109788;28;20371;-77
2024/01/10 10:05:05;;;;;;;;;;;3.60;99.90;;;;;;5113167;28;20399;-76
2024/01/10 10:07:30;;;;;;;;;;;3.70;99.90;;;;;;5107531;28;19904;-78
2024/01/10 10:09:56;;;;;;;;;;;3.80;99.90;;;;;;5113354;28;19918;-79
2024/01/10 10:12:22;;;;;;;;;;;3.90;99.90;;;;;;5117058;28;19996;-78
2024/01/10 10:14:48;;;;;;;;;;;4.00;99.90;;;;;;5114919;28;19946;-78
2024/01/10 10:17:16;;;;;;;;;;;4.00;99.90;;;;;;5111375;28;20379;-78
2024/01/10 10:19:42;;;;;;;;;;;4.00;99.90;;;;;;5116765;28;19949;-78
2024/01/10 10:22:09;;;;;;;;;;;4.00;99.90;;;;;;5112437;28;19903;-80
2024/01/10 10:24:34;;;;;;;;;;;4.00;99.90;;;;;;5112134;28;19915;-78
2024/01/10 10:27:00;;;;;;;;;;;3.90;99.90;;;;;;5107955;28;19908;-79
2024/01/10 10:29:25;;;;;;;;;;;3.90;99.90;;;;;;5111576;28;19904;-80
2024/01/10 10:31:51;;;;;;;;;;;3.90;99.90;;;;;;5107730;28;20403;-78
2024/01/10 10:34:20;;;;;;;;;;;3.90;99.90;;;;;;5115942;28;20402;-78
2024/01/10 10:36:47;;;;;;;;;;;3.90;99.90;;;;;;5109811;28;19936;-78
2024/01/10 10:39:16;;;;;;;;;;;4.00;99.90;;;;;;5113761;28;19925;-77
2024/01/10 10:41:42;;;;;;;;;;;4.10;99.90;;;;;;5113653;28;19956;-77
2024/01/10 10:44:09;;;;;;;;;;;4.20;99.90;;;;;;5110735;28;19904;-77
2024/01/10 10:46:35;;;;;;;;;;;4.20;99.90;;;;;;5109617;28;20429;-77
2024/01/10 10:49:06;;;;;;;;;;;4.40;99.90;;;;;;5110923;28;19903;-77
2024/01/10 10:51:36;;;;;;;;;;;4.50;99.90;;;;;;5112932;28;20093;-77
2024/01/10 10:54:03;;;;;;;;;;;4.60;99.90;;;;;;5114264;28;19946;-77
2024/01/10 10:56:30;;;;;;;;;;;4.70;99.90;;;;;;5111923;28;19954;-77
2024/01/10 10:58:56;;;;;;;;;;;4.70;99.90;;;;;;5112440;28;19957;-77
2024/01/10 11:01:22;;;;;;;;;;;4.60;99.90;;;;;;5108322;27;19907;-77
2024/01/10 11:03:49;;;;;;;;;;;4.50;99.90;;;;;;5108629;28;19908;-74
2024/01/10 11:06:14;;;;;;;;;;;4.50;99.90;;;;;;5115975;28;19955;-77
2024/01/10 11:08:44;;;;;;;;;;;4.40;99.90;;;;;;5106580;27;19903;-76
2024/01/10 11:11:33;;;;;;;;;;;4.40;99.90;;;;;;5109428;28;19975;-76
2024/01/10 11:14:08;;;;;;;;;;;4.60;99.90;;;;;;5098893;28;19904;-75
2024/01/10 11:16:44;;;;;;;;;;;4.60;99.90;;;;;;5105329;28;19904;-75
2024/01/10 11:19:30;;;;;;;;;;;4.60;99.90;;;;;;5104979;28;19908;-75
2024/01/10 11:21:56;;;;;;;;;;;4.60;99.90;;;;;;5102212;28;19954;-74
2024/01/10 11:24:22;;;;;;;;;;;4.50;99.90;;;;;;5098870;28;19943;-74
2024/01/10 11:26:48;;;;;;;;;;;4.40;99.90;;;;;;5093699;28;19912;-75
2024/01/10 11:29:14;;;;;;;;;;;4.30;99.90;;;;;;5101241;28;19918;-74
2024/01/10 11:31:40;;;;;;;;;;;4.20;99.90;;;;;;5094534;28;19961;-74
2024/01/10 11:34:05;;;;;;;;;;;4.10;99.90;;;;;;5091723;28;19908;-74
2024/01/10 11:36:31;;;;;;;;;;;4.10;99.90;;;;;;5090125;28;19908;-74
2024/01/10 11:39:04;;;;;;;;;;;4.10;99.90;;;;;;5094426;28;20076;-75
2024/01/10 11:41:31;;;;;;;;;;;4.10;99.90;;;;;;5091604;28;19922;-74
2024/01/10 11:44:12;;;;;;;;;;;4.00;99.90;;;;;;5095385;28;20007;-74
2024/01/10 11:46:57;;;;;;;;;;;4.10;99.90;;;;;;5101782;28;19912;-74
2024/01/10 11:49:24;;;;;;;;;;;4.00;99.90;;;;;;5088737;28;19958;-74
2024/01/10 11:51:50;;;;;;;;;;;4.10;99.90;;;;;;5098563;28;19908;-74
2024/01/10 11:54:36;;;;;;;;;;;4.20;99.90;;;;;;5096800;28;19929;-74
2024/01/10 11:57:02;;;;;;;;;;;4.30;99.90;;;;;;5094172;28;20030;-74
2024/01/10 11:59:30;;;;;;;;;;;4.40;99.90;;;;;;5097133;28;20467;-74
2024/01/10 12:01:56;;;;;;;;;;;4.50;99.90;;;;;;5098929;28;20279;-74
2024/01/10 12:04:21;;;;;;;;;;;4.40;99.90;;;;;;5105304;28;19998;-74
2024/01/10 12:06:47;;;;;;;;;;;4.40;99.90;;;;;;5106786;28;19912;-74
2024/01/10 12:09:14;;;;;;;;;;;4.40;99.90;;;;;;5095543;28;20296;-74
2024/01/10 12:11:41;;;;;;;;;;;4.30;99.90;;;;;;5095466;28;19907;-74
2024/01/10 12:14:08;;;;;;;;;;;4.30;99.90;;;;;;5095125;28;19908;-74
2024/01/10 12:16:33;;;;;;;;;;;4.20;99.90;;;;;;5113156;28;19904;-74
2024/01/10 12:18:59;;;;;;;;;;;4.20;99.90;;;;;;5093595;28;19908;-74
2024/01/10 12:21:24;;;;;;;;;;;4.20;99.90;;;;;;5093528;28;19908;-74
2024/01/10 12:23:51;;;;;;;;;;;4.10;99.90;;;;;;5098516;28;19908;-74
2024/01/10 12:26:17;;;;;;;;;;;4.10;99.90;;;;;;5109862;28;19911;-74
2024/01/10 12:28:53;;;;;;;;;;;4.10;99.90;;;;;;5094973;28;20014;-74
2024/01/10 12:31:18;;;;;;;;;;;4.10;99.90;;;;;;5106300;28;19957;-74
2024/01/10 12:33:44;;;;;;;;;;;4.00;99.90;;;;;;5096147;28;19912;-74
2024/01/10 12:36:10;;;;;;;;;;;4.00;99.90;;;;;;5096080;28;19961;-74
2024/01/10 12:38:37;;;;;;;;;;;4.00;99.90;;;;;;5094928;28;19959;-74
2024/01/10 12:41:04;;;;;;;;;;;3.90;99.90;;;;;;5104994;28;19904;-74
2024/01/10 12:43:29;;;;;;;;;;;3.90;99.90;;;;;;5101709;28;20358;-75
2024/01/10 12:46:11;;;;;;;;;;;3.90;99.90;;;;;;5100938;28;20272;-74
2024/01/10 12:48:42;;;;;;;;;;;3.90;99.90;;;;;;5104098;28;19953;-75
2024/01/10 12:51:12;;;;;;;;;;;3.90;99.90;;;;;;5101798;28;19927;-75
2024/01/10 12:53:38;;;;;;;;;;;3.90;99.90;;;;;;5100049;28;19908;-75
2024/01/10 12:56:04;;;;;;;;;;;3.80;99.90;;;;;;5105343;28;20285;-74
2024/01/10 12:58:30;;;;;;;;;;;3.80;99.90;;;;;;5099896;28;19912;-75
2024/01/10 13:00:56;;;;;;;;;;;3.90;99.90;;;;;;5097549;28;20277;-75
2024/01/10 13:03:22;;;;;;;;;;;3.90;99.90;;;;;;5098353;28;19908;-75
2024/01/10 13:05:47;;;;;;;;;;;4.00;99.90;;;;;;5098338;28;19951;-75
2024/01/10 13:08:13;;;;;;;;;;;4.00;99.90;;;;;;5105517;28;19958;-75
2024/01/10 13:10:39;;;;;;;;;;;4.10;99.90;;;;;;5093653;28;20319;-75
2024/01/10 13:13:04;;;;;;;;;;;4.20;99.90;;;;;;5105194;28;19912;-75
2024/01/10 13:15:30;;;;;;;;;;;4.30;99.90;;;;;;5097213;28;20084;-75
2024/01/10 13:17:56;;;;;;;;;;;4.40;99.90;;;;;;5095295;28;19916;-75
2024/01/10 13:20:22;;;;;;;;;;;4.50;99.90;;;;;;5098726;28;19908;-75
2024/01/10 13:22:47;;;;;;;;;;;4.60;99.90;;;;;;5101769;28;19922;-75
2024/01/10 13:25:13;;;;;;;;;;;4.60;99.90;;;;;;5099348;28;19908;-75
2024/01/10 13:27:38;;;;;;;;;;;4.60;99.90;;;;;;5098749;28;19912;-74
2024/01/10 13:30:05;;;;;;;;;;;4.60;99.90;;;;;;5103178;28;19937;-74
2024/01/10 13:32:31;;;;;;;;;;;4.50;99.90;;;;;;5110329;28;19916;-75
2024/01/10 13:34:56;;;;;;;;;;;4.40;99.90;;;;;;5103373;28;19912;-75
2024/01/10 13:37:22;;;;;;;;;;;4.40;99.90;;;;;;5105921;27;20434;-74
2024/01/10 13:39:48;;;;;;;;;;;4.40;99.90;;;;;;5109032;28;19908;-75
2024/01/10 13:42:14;;;;;;;;;;;4.40;99.90;;;;;;5110472;28;19912;-74
2024/01/10 13:44:40;;;;;;;;;;;4.50;99.90;;;;;;5102530;28;19969;-74
2024/01/10 13:47:06;;;;;;;;;;;4.50;99.90;;;;;;5110591;28;20371;-74
2024/01/10 13:49:31;;;;;;;;;;;4.60;99.90;;;;;;5105990;27;19914;-74
2024/01/10 13:51:57;;;;;;;;;;;4.60;99.90;;;;;;5109594;28;19911;-74
2024/01/10 13:54:22;;;;;;;;;;;4.60;99.90;;;;;;5105883;28;19914;-74
2024/01/10 13:56:48;;;;;;;;;;;4.60;99.90;;;;;;5110852;28;19922;-74
2024/01/10 13:59:14;;;;;;;;;;;4.80;99.90;;;;;;5107218;28;19919;-74
2024/01/10 14:01:39;;;;;;;;;;;4.80;99.90;;;;;;5106613;28;19927;-74
2024/01/10 14:04:05;;;;;;;;;;;4.90;99.90;;;;;;5103661;28;19911;-76
2024/01/10 14:06:31;;;;;;;;;;;5.10;99.90;;;;;;5106200;28;19916;-74
2024/01/10 14:08:57;;;;;;;;;;;5.20;99.90;;;;;;5107208;28;19911;-74
2024/01/10 14:11:24;;;;;;;;;;;5.30;99.90;;;;;;5112225;28;19930;-74
2024/01/10 14:13:49;;;;;;;;;;;5.40;99.90;;;;;;5110012;28;20435;-74
2024/01/10 14:16:15;;;;;;;;;;;5.40;99.90;;;;;;5108348;28;19954;-74
2024/01/10 14:18:40;;;;;;;;;;;5.50;99.90;;;;;;5105651;28;19980;-72